Hong Xiang 2 — BYBA — position and weather

sailwx.info

Track history (hours):
 
Tides and Currents Weather Stations Pressure Air Temp Water Temp Dewpoint Dewpoint Depression Visibility Wind Speed Wind Dir Waves Ship Positions

Hong Xiang 2

Last reported at 2015-Aug-05 06:33 UTC. Time now 2015-Aug-05 10:27 UTC.
Position N 23°26' E 116°32'.

Length 96 m; draft 5.2 m.

Type: Ship (hazmat cat A). MMSI: 413413000.

Date/timePositionNaut miles runAvg speedWind from/ knotsBaromVisibWave heightAir tempDewpointWater temp
2015-Aug-05 06:33N 23°26' E 116°32'9 8.8
2015-Aug-05 05:33N 23°21' E 116°41'10 9.8
2015-Aug-05 04:33N 23°15' E 116°49'  
2015-Aug-02 09:32N 23°15' E 116°49'1010.3
2015-Aug-02 08:33N 23°21' E 116°39'12 0.5
2015-Aug-01 05:27N 23°28' E 116°28'7 7.6
2015-Aug-01 04:33N 23°23' E 116°33'9 9.3
2015-Aug-01 03:33N 23°21' E 116°43'6 5.9
2015-Aug-01 02:33N 23°17' E 116°48'9 9.0
2015-Aug-01 01:33N 23°08' E 116°46'14310.9
2015-Jul-31 12:29N 22°10' E 114°24'1010.3
2015-Jul-31 11:30N 22°07' E 114°14'2110.2
2015-Jul-31 09:29N 22°09' E 113°52'1010.6
2015-Jul-31 08:33N 22°18' E 113°48'2512.0
2015-Jul-31 06:28N 22°43' E 113°41'1111.0
2015-Jul-31 05:29N 22°52' E 113°34'6 0.7
2015-Jul-30 21:34N 22°57' E 113°33'0 0.0
2015-Jul-30 20:34N 22°57' E 113°33'0 0.0
2015-Jul-30 19:28N 22°57' E 113°33'0 0.0
2015-Jul-30 18:22N 22°57' E 113°33'0 0.0
2015-Jul-30 17:28N 22°57' E 113°33'0 0.0
2015-Jul-30 16:28N 22°57' E 113°33'0 0.0
2015-Jul-30 15:34N 22°57' E 113°33'0 0.0
2015-Jul-30 14:28N 22°57' E 113°33'0 0.0
2015-Jul-30 12:34N 22°57' E 113°33'5 4.7
2015-Jul-30 11:31N 22°52' E 113°34'21 9.4
2015-Jul-30 09:15N 22°33' E 113°44'6 9.1
2015-Jul-30 08:33N 22°26' E 113°45'8 8.0
2015-Jul-30 07:33N 22°19' E 113°48'7 7.4
2015-Jul-30 06:34N 22°12' E 113°50'18 8.1
2015-Jul-30 04:19N 22°09' E 114°09'147 9.8
2015-Jul-29 13:20N 23°01' E 116°38'8 9.3
2015-Jul-29 12:30N 23°06' E 116°44'9 9.4
2015-Jul-29 11:33N 23°14' E 116°50'10 9.9
2015-Jul-29 10:33N 23°21' E 116°42'4 4.2
2015-Jul-29 09:31N 23°20' E 116°37'0 0.0
2015-Jul-29 08:31N 23°20' E 116°37'0 0.0
2015-Jul-29 07:31N 23°20' E 116°37'1 0.6
2015-Jul-29 05:11N 23°21' E 116°36'1 0.6
2015-Jul-29 03:18N 23°21' E 116°35'7 8.9
2015-Jul-29 02:33N 23°26' E 116°30'2 0.1
2015-Jul-27 22:33N 23°26' E 116°28'7 7.5
2015-Jul-27 21:33N 23°22' E 116°34'3 2.9
2015-Jul-27 20:31N 23°20' E 116°37'0 0.0
2015-Jul-27 19:31N 23°20' E 116°37'0 0.0
2015-Jul-27 18:31N 23°20' E 116°37'0 0.1
2015-Jul-27 17:32N 23°20' E 116°37'0 0.1
2015-Jul-27 16:32N 23°20' E 116°37'0 0.0
2015-Jul-27 15:32N 23°20' E 116°37'0 0.0
2015-Jul-27 14:28N 23°20' E 116°37'0 0.0
2015-Jul-27 13:28N 23°20' E 116°37'0 0.0
2015-Jul-27 11:32N 23°20' E 116°37'14 6.9
2015-Jul-27 09:33N 23°11' E 116°48'1211.7
2015-Jul-27 08:33N 23°03' E 116°39'  
Track history (hours):
 
Tides and Currents Weather Stations Pressure Air Temp Water Temp Dewpoint Dewpoint Depression Visibility Wind Speed Wind Dir Waves Ship Positions

Hong Xiang 2

Last reported at 2015-Aug-05 06:33 UTC. Time now 2015-Aug-05 10:27 UTC.
Position N 23°26' E 116°32'.

Length 96 m; draft 5.2 m.

Type: Ship (hazmat cat A). MMSI: 413413000.

Date/timePositionNaut miles runAvg speedWind from/ knotsBaromVisibWave heightAir tempDewpointWater temp
2015-Aug-05 06:33N 23°26' E 116°32'9 8.8
2015-Aug-05 05:33N 23°21' E 116°41'10 9.8
2015-Aug-05 04:33N 23°15' E 116°49'  
2015-Aug-02 09:32N 23°15' E 116°49'1010.3
2015-Aug-02 08:33N 23°21' E 116°39'12 0.5
2015-Aug-01 05:27N 23°28' E 116°28'7 7.6
2015-Aug-01 04:33N 23°23' E 116°33'9 9.3
2015-Aug-01 03:33N 23°21' E 116°43'6 5.9
2015-Aug-01 02:33N 23°17' E 116°48'9 9.0
2015-Aug-01 01:33N 23°08' E 116°46'14310.9
2015-Jul-31 12:29N 22°10' E 114°24'1010.3
2015-Jul-31 11:30N 22°07' E 114°14'2110.2
2015-Jul-31 09:29N 22°09' E 113°52'1010.6
2015-Jul-31 08:33N 22°18' E 113°48'2512.0
2015-Jul-31 06:28N 22°43' E 113°41'1111.0
2015-Jul-31 05:29N 22°52' E 113°34'6 0.7
2015-Jul-30 21:34N 22°57' E 113°33'0 0.0
2015-Jul-30 20:34N 22°57' E 113°33'0 0.0
2015-Jul-30 19:28N 22°57' E 113°33'0 0.0
2015-Jul-30 18:22N 22°57' E 113°33'0 0.0
2015-Jul-30 17:28N 22°57' E 113°33'0 0.0
2015-Jul-30 16:28N 22°57' E 113°33'0 0.0
2015-Jul-30 15:34N 22°57' E 113°33'0 0.0
2015-Jul-30 14:28N 22°57' E 113°33'0 0.0
2015-Jul-30 12:34N 22°57' E 113°33'5 4.7
2015-Jul-30 11:31N 22°52' E 113°34'21 9.4
2015-Jul-30 09:15N 22°33' E 113°44'6 9.1
2015-Jul-30 08:33N 22°26' E 113°45'8 8.0
2015-Jul-30 07:33N 22°19' E 113°48'7 7.4
2015-Jul-30 06:34N 22°12' E 113°50'18 8.1
2015-Jul-30 04:19N 22°09' E 114°09'147 9.8
2015-Jul-29 13:20N 23°01' E 116°38'8 9.3
2015-Jul-29 12:30N 23°06' E 116°44'9 9.4
2015-Jul-29 11:33N 23°14' E 116°50'10 9.9
2015-Jul-29 10:33N 23°21' E 116°42'4 4.2
2015-Jul-29 09:31N 23°20' E 116°37'0 0.0
2015-Jul-29 08:31N 23°20' E 116°37'0 0.0
2015-Jul-29 07:31N 23°20' E 116°37'1 0.6
2015-Jul-29 05:11N 23°21' E 116°36'1 0.6
2015-Jul-29 03:18N 23°21' E 116°35'7 8.9
2015-Jul-29 02:33N 23°26' E 116°30'2 0.1
2015-Jul-27 22:33N 23°26' E 116°28'7 7.5
2015-Jul-27 21:33N 23°22' E 116°34'3 2.9
2015-Jul-27 20:31N 23°20' E 116°37'0 0.0
2015-Jul-27 19:31N 23°20' E 116°37'0 0.0
2015-Jul-27 18:31N 23°20' E 116°37'0 0.1
2015-Jul-27 17:32N 23°20' E 116°37'0 0.1
2015-Jul-27 16:32N 23°20' E 116°37'0 0.0
2015-Jul-27 15:32N 23°20' E 116°37'0 0.0
2015-Jul-27 14:28N 23°20' E 116°37'0 0.0
2015-Jul-27 13:28N 23°20' E 116°37'0 0.0
2015-Jul-27 11:32N 23°20' E 116°37'14 6.9
2015-Jul-27 09:33N 23°11' E 116°48'1211.7
2015-Jul-27 08:33N 23°03' E 116°39'  

Dump ship's entire track history